Terminal Aerodrome Forecast
Issued by NWS Amarillo, TX

Home | Current Version | Previous Version | Text Only | Print | Product List | Glossary On
Versions: 1 2 3 4 5 6 7 8 9 10 11 12 13 14 15 16 17 18
000
FTUS44 KAMA 051100 RRA
TAFAMA
TAF
KAMA 051148Z 0512/0612 35006KT 6SM BR VCSH BKN007
     FM051400 17011KT 6SM SHRA BKN009
     FM051700 16023G34KT 6SM SHRA BKN015
     FM052000 16024G35KT P6SM VCTS BKN025CB
     FM060100 14017KT P6SM SCT008 BKN025=

USA.gov is the U.S. government's official web portal to all federal, state and local government web resources and services.